createdAt,value
2018-09-23T00:03:02.089Z,4.60
2018-09-23T00:06:35.299Z,2.40
2018-09-23T00:10:08.515Z,1.87
2018-09-23T00:13:41.717Z,2.50
2018-09-23T00:17:14.937Z,6.13
2018-09-23T00:20:48.144Z,2.00
2018-09-23T00:24:21.351Z,3.30
2018-09-23T00:27:54.579Z,3.37
2018-09-23T00:31:27.815Z,2.70
2018-09-23T00:35:01.039Z,4.00
2018-09-23T00:38:34.252Z,2.80
2018-09-23T00:42:07.520Z,1.90
2018-09-23T00:45:40.739Z,3.00
2018-09-23T00:49:14.020Z,2.60
2018-09-23T00:52:47.235Z,2.50
2018-09-23T00:56:20.444Z,3.00
2018-09-23T00:59:53.676Z,2.50
2018-09-23T01:03:26.882Z,2.03
2018-09-23T01:07:00.105Z,3.20
2018-09-23T01:10:33.312Z,5.53
2018-09-23T01:14:06.520Z,2.73
2018-09-23T01:17:39.739Z,2.00
2018-09-23T01:21:12.965Z,5.23
2018-09-23T01:24:46.192Z,2.97
2018-09-23T01:28:19.420Z,2.20
2018-09-23T01:31:52.647Z,3.20
2018-09-23T01:35:25.872Z,1.93
2018-09-23T01:38:59.114Z,3.53
2018-09-23T01:42:32.352Z,2.47
2018-09-23T01:46:05.603Z,5.67
2018-09-23T01:49:38.820Z,2.90
2018-09-23T01:53:12.029Z,4.57
2018-09-23T01:56:45.263Z,5.43
2018-09-23T02:00:18.483Z,7.00
2018-09-23T02:03:51.698Z,2.50
2018-09-23T02:07:24.928Z,5.57
2018-09-23T02:10:58.143Z,4.63
2018-09-23T02:14:31.359Z,2.47
2018-09-23T02:18:04.595Z,3.93
2018-09-23T02:21:37.820Z,5.10
2018-09-23T02:25:11.044Z,5.20
2018-09-23T02:28:44.270Z,5.83
2018-09-23T02:32:17.485Z,4.90
2018-09-23T02:35:50.709Z,3.70
2018-09-23T02:39:23.919Z,5.23
2018-09-23T02:42:57.138Z,3.43
2018-09-23T02:46:30.363Z,4.83
2018-09-23T02:50:03.584Z,2.10
2018-09-23T02:53:36.839Z,3.10
2018-09-23T02:57:10.057Z,7.23
2018-09-23T03:00:43.256Z,2.33
2018-09-23T03:04:16.467Z,3.00
2018-09-23T03:07:49.684Z,5.90
2018-09-23T03:11:22.895Z,5.23
2018-09-23T03:14:56.095Z,3.93
2018-09-23T03:18:29.307Z,5.97
2018-09-23T03:22:02.530Z,5.93
2018-09-23T03:25:35.747Z,4.50
2018-09-23T03:29:09.019Z,2.97
2018-09-23T03:32:42.244Z,5.10
2018-09-23T03:36:15.483Z,6.03
2018-09-23T03:39:48.708Z,5.80
2018-09-23T03:43:21.927Z,5.33
2018-09-23T03:46:55.155Z,5.60
2018-09-23T03:50:28.411Z,3.40
2018-09-23T03:54:01.627Z,3.83
2018-09-23T03:57:34.843Z,4.07
2018-09-23T04:01:08.064Z,3.83
2018-09-23T04:04:41.273Z,2.50
2018-09-23T04:08:14.492Z,5.93
2018-09-23T04:11:47.712Z,3.20
2018-09-23T04:15:20.932Z,3.33
2018-09-23T04:18:54.144Z,5.10
2018-09-23T04:22:27.385Z,3.30
2018-09-23T04:26:00.592Z,5.23
2018-09-23T04:29:33.824Z,3.13
2018-09-23T04:33:07.039Z,3.53
2018-09-23T04:36:40.259Z,2.70
2018-09-23T04:40:13.497Z,2.67
2018-09-23T04:43:46.728Z,3.50
2018-09-23T04:47:19.963Z,3.73
2018-09-23T04:50:53.168Z,4.67
2018-09-23T04:54:26.397Z,3.87
2018-09-23T04:57:59.681Z,2.90
2018-09-23T05:01:32.891Z,2.63
2018-09-23T05:05:06.224Z,3.87
2018-09-23T05:08:39.442Z,5.70
2018-09-23T05:12:12.649Z,5.30
2018-09-23T05:15:45.880Z,3.17
2018-09-23T05:19:19.102Z,4.00
2018-09-23T05:22:52.396Z,3.43
2018-09-23T05:26:25.609Z,2.20
2018-09-23T05:29:58.987Z,4.47
2018-09-23T05:33:32.212Z,2.77
2018-09-23T05:37:05.448Z,3.53
2018-09-23T05:40:38.672Z,3.17
2018-09-23T05:44:11.911Z,3.10
2018-09-23T05:47:45.123Z,5.27
2018-09-23T05:51:18.343Z,3.70
2018-09-23T05:54:51.563Z,4.77
2018-09-23T05:58:24.786Z,3.57
2018-09-23T06:01:57.995Z,2.93
2018-09-23T06:05:31.219Z,3.47
2018-09-23T06:09:05.432Z,3.40
2018-09-23T06:12:38.662Z,3.53
2018-09-23T06:16:11.891Z,3.27
2018-09-23T06:19:45.124Z,3.80
2018-09-23T06:23:18.333Z,2.80
2018-09-23T06:26:51.549Z,2.50
2018-09-23T06:30:24.807Z,3.10
2018-09-23T06:33:58.026Z,2.57
2018-09-23T06:37:31.252Z,2.43
2018-09-23T06:41:04.496Z,2.40
2018-09-23T06:44:37.713Z,2.20
2018-09-23T06:48:10.948Z,2.80
2018-09-23T06:51:44.167Z,2.97
2018-09-23T06:55:17.391Z,3.40
2018-09-23T06:58:50.874Z,2.80
2018-09-23T07:02:24.094Z,4.10
2018-09-23T07:05:57.319Z,2.50
2018-09-23T07:09:30.536Z,2.80
2018-09-23T07:13:03.763Z,2.90
2018-09-23T07:16:36.981Z,3.13
2018-09-23T07:20:10.211Z,2.87
2018-09-23T07:23:43.499Z,4.03
2018-09-23T07:27:16.660Z,3.90
2018-09-23T07:30:49.933Z,3.57
2018-09-23T07:34:23.163Z,3.40
2018-09-23T07:37:56.395Z,3.47
2018-09-23T07:41:29.815Z,4.83
2018-09-23T07:45:03.045Z,4.80
2018-09-23T07:48:36.267Z,4.63
2018-09-23T07:52:09.476Z,4.97
2018-09-23T07:55:42.716Z,5.00
2018-09-23T07:59:15.951Z,5.30
2018-09-23T08:02:49.159Z,6.10
2018-09-23T08:06:22.386Z,5.57
2018-09-23T08:09:55.608Z,5.00
2018-09-23T08:13:28.933Z,5.57
2018-09-23T08:17:02.107Z,4.90
2018-09-23T08:20:35.405Z,5.63
2018-09-23T08:24:08.580Z,6.20
2018-09-23T08:27:41.800Z,5.33
2018-09-23T08:31:15.030Z,5.40
2018-09-23T08:34:48.271Z,5.93
2018-09-23T08:38:21.483Z,5.60
2018-09-23T08:41:54.699Z,4.83
2018-09-23T08:45:27.931Z,5.60
2018-09-23T08:49:01.152Z,7.17
2018-09-23T08:52:34.366Z,5.47
2018-09-23T08:56:07.588Z,7.27
2018-09-23T08:59:40.824Z,5.57
2018-09-23T09:03:14.040Z,9.80
2018-09-23T09:06:47.276Z,5.00
2018-09-23T09:10:20.507Z,7.00
2018-09-23T09:13:53.710Z,7.07
2018-09-23T09:17:26.927Z,5.63
2018-09-23T09:21:00.328Z,6.80
2018-09-23T09:24:33.540Z,3.80
2018-09-23T09:28:06.749Z,4.10
2018-09-23T09:31:40.011Z,4.30
2018-09-23T09:35:13.224Z,4.30
2018-09-23T09:38:46.448Z,4.53
2018-09-23T09:42:19.664Z,4.83
2018-09-23T09:45:52.875Z,3.33
2018-09-23T09:49:26.091Z,4.13
2018-09-23T09:52:59.323Z,3.57
2018-09-23T09:56:32.561Z,3.47
2018-09-23T10:00:06.525Z,4.40
2018-09-23T10:03:39.803Z,5.70
2018-09-23T10:07:13.040Z,4.20
2018-09-23T10:10:46.329Z,3.40
2018-09-23T10:14:19.543Z,3.63
2018-09-23T10:17:52.771Z,3.37
2018-09-23T10:21:26.060Z,2.93
2018-09-23T10:24:59.279Z,3.40
2018-09-23T10:28:32.499Z,4.80
2018-09-23T10:32:05.748Z,2.80
2018-09-23T10:35:38.976Z,2.67
2018-09-23T10:39:12.191Z,2.40
2018-09-23T10:42:45.401Z,3.20
2018-09-23T10:46:18.635Z,2.03
2018-09-23T10:49:51.926Z,4.57
2018-09-23T10:53:25.146Z,1.97
2018-09-23T10:56:58.364Z,2.67
2018-09-23T11:00:31.579Z,2.07
2018-09-23T11:04:04.932Z,2.17
2018-09-23T11:07:38.056Z,1.67
2018-09-23T11:11:11.263Z,1.40
2018-09-23T11:14:44.475Z,1.70
2018-09-23T11:18:17.688Z,2.10
2018-09-23T11:21:50.899Z,2.13
2018-09-23T11:25:24.110Z,1.80
2018-09-23T11:28:57.339Z,1.20
2018-09-23T11:32:30.550Z,1.30
2018-09-23T11:36:03.815Z,1.40
2018-09-23T11:39:37.031Z,1.23
2018-09-23T11:43:10.242Z,1.17
2018-09-23T11:46:43.460Z,1.00
2018-09-23T11:50:16.675Z,2.27
2018-09-23T11:53:49.884Z,1.20
2018-09-23T11:57:23.109Z,1.10
2018-09-23T12:00:56.323Z,2.87
2018-09-23T12:04:29.601Z,1.77
2018-09-23T12:08:02.780Z,1.37
2018-09-23T12:11:36.001Z,1.23
2018-09-23T12:15:09.209Z,1.57
2018-09-23T12:18:42.613Z,1.17
2018-09-23T12:22:15.877Z,1.53
2018-09-23T12:25:49.258Z,2.40
2018-09-23T12:29:22.339Z,1.33
2018-09-23T12:32:55.560Z,1.80
2018-09-23T12:36:28.773Z,1.53
2018-09-23T12:40:02.028Z,1.80
2018-09-23T12:43:35.232Z,1.30
2018-09-23T12:47:08.448Z,3.03
2018-09-23T12:50:41.673Z,3.57
2018-09-23T12:54:14.894Z,1.47
2018-09-23T12:57:48.115Z,1.37
2018-09-23T13:01:21.334Z,3.13
2018-09-23T13:04:54.549Z,1.23
2018-09-23T13:08:27.764Z,1.30
2018-09-23T13:12:01.003Z,1.60
2018-09-23T13:15:34.283Z,1.23
2018-09-23T13:19:07.708Z,2.40
2018-09-23T13:22:40.923Z,1.33
2018-09-23T13:26:14.123Z,1.20
2018-09-23T13:29:47.341Z,1.37
2018-09-23T13:33:20.577Z,1.10
2018-09-23T13:36:53.804Z,0.80
2018-09-23T13:40:27.015Z,2.10
2018-09-23T13:44:00.243Z,1.27
2018-09-23T13:47:33.520Z,1.00
2018-09-23T13:51:06.739Z,1.23
2018-09-23T13:54:39.981Z,1.40
2018-09-23T13:58:13.195Z,0.90
2018-09-23T14:01:46.406Z,2.00
2018-09-23T14:05:19.616Z,0.93
2018-09-23T14:08:52.825Z,1.43
2018-09-23T14:12:26.040Z,1.17
2018-09-23T14:15:59.247Z,0.80
2018-09-23T14:19:32.476Z,1.50
2018-09-23T14:23:05.707Z,1.60
2018-09-23T14:26:38.919Z,2.80
2018-09-23T14:30:12.140Z,1.10
2018-09-23T14:33:45.368Z,2.27
2018-09-23T14:37:18.585Z,0.70
2018-09-23T14:40:51.802Z,1.10
2018-09-23T14:44:25.053Z,1.27
2018-09-23T14:47:58.293Z,1.57
2018-09-23T14:51:31.535Z,0.70
2018-09-23T14:55:04.893Z,0.97
2018-09-23T14:58:38.061Z,2.50
2018-09-23T15:02:11.277Z,2.83
2018-09-23T15:05:44.507Z,2.23
2018-09-23T15:09:17.812Z,0.80
2018-09-23T15:12:51.018Z,1.50
2018-09-23T15:16:24.254Z,1.17
2018-09-23T15:19:57.556Z,1.33
2018-09-23T15:23:30.772Z,1.63
2018-09-23T15:27:04.004Z,1.10
2018-09-23T15:30:37.237Z,1.00
2018-09-23T15:34:11.251Z,2.93
2018-09-23T15:37:44.507Z,2.80
2018-09-23T15:41:17.735Z,2.10
2018-09-23T15:44:50.940Z,0.83
2018-09-23T15:48:24.173Z,1.27
2018-09-23T15:51:57.398Z,1.57
2018-09-23T15:55:30.623Z,1.10
2018-09-23T15:59:03.832Z,0.83
2018-09-23T16:02:37.051Z,0.70
2018-09-23T16:06:10.316Z,0.60
2018-09-23T16:09:43.527Z,2.03
2018-09-23T16:13:16.740Z,2.40
2018-09-23T16:16:49.957Z,0.70
2018-09-23T16:20:23.180Z,2.20
2018-09-23T16:23:56.443Z,2.90
2018-09-23T16:27:29.642Z,6.13
2018-09-23T16:31:02.859Z,0.30
2018-09-23T16:34:36.066Z,0.30
2018-09-23T16:38:09.501Z,0.30
2018-09-23T16:41:42.740Z,0.30
2018-09-23T16:45:16.186Z,0.30
2018-09-23T16:48:49.419Z,1.03
2018-09-23T16:52:22.624Z,0.30
2018-09-23T16:55:55.840Z,0.30
2018-09-23T16:59:29.064Z,0.30
2018-09-23T17:03:02.284Z,0.20
2018-09-23T17:06:35.528Z,0.20
2018-09-23T17:10:08.750Z,0.20
2018-09-23T17:13:41.975Z,0.20
2018-09-23T17:17:15.203Z,0.20
2018-09-23T17:20:48.417Z,0.20
2018-09-23T17:24:21.631Z,0.20
2018-09-23T17:27:55.707Z,0.20
2018-09-23T17:31:28.919Z,0.20
2018-09-23T17:35:02.193Z,0.20
2018-09-23T17:38:35.409Z,0.20
2018-09-23T17:42:08.637Z,0.20
2018-09-23T17:45:41.848Z,0.20
2018-09-23T17:49:15.135Z,0.20
2018-09-23T17:52:48.382Z,0.20
2018-09-23T17:56:21.610Z,0.20
2018-09-23T17:59:54.892Z,0.20
2018-09-23T18:03:28.128Z,0.20
2018-09-23T18:07:01.418Z,0.20
2018-09-23T18:10:34.620Z,0.20
2018-09-23T18:14:07.843Z,0.20
2018-09-23T18:17:41.073Z,0.30
2018-09-23T18:21:14.301Z,0.20
2018-09-23T18:24:47.525Z,0.20
2018-09-23T18:28:20.750Z,0.20
2018-09-23T18:31:53.975Z,0.20
2018-09-23T18:35:27.201Z,0.20
2018-09-23T18:39:00.422Z,0.20
2018-09-23T18:42:33.640Z,0.20
2018-09-23T18:46:06.858Z,0.20
2018-09-23T18:49:40.089Z,0.20
2018-09-23T18:53:18.745Z,0.20
2018-09-23T18:56:51.953Z,0.20
2018-09-23T19:00:25.240Z,0.20
2018-09-23T19:03:58.545Z,0.20
2018-09-23T19:07:32.007Z,0.20
2018-09-23T19:11:05.248Z,0.20
2018-09-23T19:14:38.782Z,0.20
2018-09-23T19:18:12.050Z,0.20
2018-09-23T19:21:45.348Z,0.20
2018-09-23T19:25:18.631Z,0.30
2018-09-23T19:28:51.903Z,0.20
2018-09-23T19:32:25.161Z,0.20
2018-09-23T19:35:58.504Z,0.20
2018-09-23T19:39:31.763Z,0.20
2018-09-23T19:43:05.057Z,0.20
2018-09-23T19:46:38.260Z,0.30
2018-09-23T19:50:11.535Z,0.20
2018-09-23T19:53:45.157Z,0.20
2018-09-23T19:57:18.388Z,0.20
2018-09-23T20:00:51.662Z,0.20
2018-09-23T20:04:24.924Z,0.20
2018-09-23T20:07:58.166Z,0.20
2018-09-23T20:11:31.411Z,0.20
2018-09-23T20:15:04.632Z,0.20
2018-09-23T20:18:37.986Z,0.20
2018-09-23T20:22:12.070Z,0.20
2018-09-23T20:25:45.320Z,0.30
2018-09-23T20:29:18.545Z,0.30
2018-09-23T20:32:51.751Z,0.30
2018-09-23T20:36:24.969Z,0.30
2018-09-23T20:39:58.199Z,0.30
2018-09-23T20:43:31.416Z,0.30
2018-09-23T20:47:04.635Z,0.30
2018-09-23T20:50:37.848Z,0.30
2018-09-23T20:54:11.362Z,0.30
2018-09-23T20:57:44.588Z,0.30
2018-09-23T21:01:17.815Z,0.30
2018-09-23T21:04:51.140Z,0.30
2018-09-23T21:08:24.336Z,0.30
2018-09-23T21:11:57.560Z,0.73
2018-09-23T21:15:30.792Z,0.30
2018-09-23T21:19:04.009Z,0.30
2018-09-23T21:22:37.230Z,0.30
2018-09-23T21:26:10.457Z,0.30
2018-09-23T21:29:43.659Z,0.30
2018-09-23T21:33:16.875Z,0.30
2018-09-23T21:36:50.110Z,0.30
2018-09-23T21:40:23.372Z,0.30
2018-09-23T21:43:56.575Z,0.20
2018-09-23T21:47:29.790Z,0.20
2018-09-23T21:51:03.004Z,0.30
2018-09-23T21:54:36.204Z,0.30
2018-09-23T21:58:09.418Z,0.30
2018-09-23T22:01:42.633Z,0.30
2018-09-23T22:05:15.834Z,0.30
2018-09-23T22:08:49.047Z,0.20
2018-09-23T22:12:22.273Z,0.27
2018-09-23T22:15:55.584Z,0.20
2018-09-23T22:19:28.927Z,0.30
2018-09-23T22:23:02.150Z,0.30
2018-09-23T22:26:35.355Z,0.30
2018-09-23T22:30:08.589Z,0.30
2018-09-23T22:33:41.783Z,0.30
2018-09-23T22:37:14.998Z,0.30
2018-09-23T22:40:48.231Z,0.30
2018-09-23T22:44:21.460Z,0.30
2018-09-23T22:47:54.671Z,0.30
2018-09-23T22:51:27.882Z,0.30
2018-09-23T22:55:01.103Z,0.30
2018-09-23T22:58:34.345Z,0.30
2018-09-23T23:02:07.571Z,0.30
2018-09-23T23:05:40.792Z,0.30
2018-09-23T23:09:14.048Z,0.30
2018-09-23T23:12:47.268Z,0.30
2018-09-23T23:16:20.476Z,0.30
2018-09-23T23:19:53.698Z,0.30
2018-09-23T23:23:26.926Z,0.30
2018-09-23T23:27:00.134Z,0.30
2018-09-23T23:30:33.346Z,0.30
2018-09-23T23:34:06.556Z,0.30
2018-09-23T23:37:39.767Z,0.30
2018-09-23T23:41:12.995Z,0.30
2018-09-23T23:44:46.200Z,0.30
2018-09-23T23:48:19.427Z,0.30
2018-09-23T23:51:52.623Z,0.30
2018-09-23T23:55:25.822Z,0.30
2018-09-23T23:58:59.037Z,0.30
